sensor_id;sensor_type;location;lat;lon;timestamp;P1;durP1;ratioP1;P2;durP2;ratioP2
52798;SDS011;38667;42.872;74.622;2023-03-26T00:00:35;29.13;;;15.48;;
52798;SDS011;38667;42.872;74.622;2023-03-26T00:03:03;32.20;;;14.70;;
52798;SDS011;38667;42.872;74.622;2023-03-26T00:05:30;27.40;;;14.77;;
52798;SDS011;38667;42.872;74.622;2023-03-26T00:07:56;29.55;;;13.15;;
52798;SDS011;38667;42.872;74.622;2023-03-26T00:10:22;27.67;;;13.27;;
52798;SDS011;38667;42.872;74.622;2023-03-26T00:12:49;19.53;;;11.40;;
52798;SDS011;38667;42.872;74.622;2023-03-26T00:15:15;28.23;;;11.63;;
52798;SDS011;38667;42.872;74.622;2023-03-26T00:17:42;28.90;;;11.00;;
52798;SDS011;38667;42.872;74.622;2023-03-26T00:20:10;37.35;;;11.63;;
52798;SDS011;38667;42.872;74.622;2023-03-26T00:22:36;33.13;;;11.93;;
52798;SDS011;38667;42.872;74.622;2023-03-26T00:25:03;28.02;;;11.68;;
52798;SDS011;38667;42.872;74.622;2023-03-26T00:27:29;34.88;;;13.80;;
52798;SDS011;38667;42.872;74.622;2023-03-26T00:29:56;31.67;;;13.77;;
52798;SDS011;38667;42.872;74.622;2023-03-26T00:32:22;27.83;;;14.13;;
52798;SDS011;38667;42.872;74.622;2023-03-26T00:34:49;33.80;;;13.83;;
52798;SDS011;38667;42.872;74.622;2023-03-26T00:37:16;42.50;;;13.73;;
52798;SDS011;38667;42.872;74.622;2023-03-26T00:39:43;34.23;;;12.97;;
52798;SDS011;38667;42.872;74.622;2023-03-26T00:42:09;45.07;;;13.90;;
52798;SDS011;38667;42.872;74.622;2023-03-26T00:44:35;27.50;;;12.57;;
52798;SDS011;38667;42.872;74.622;2023-03-26T00:47:01;37.67;;;14.27;;
52798;SDS011;38667;42.872;74.622;2023-03-26T00:49:28;31.63;;;12.37;;
52798;SDS011;38667;42.872;74.622;2023-03-26T00:51:54;44.77;;;13.13;;
52798;SDS011;38667;42.872;74.622;2023-03-26T00:54:23;29.15;;;12.43;;
52798;SDS011;38667;42.872;74.622;2023-03-26T00:56:50;37.33;;;11.83;;
52798;SDS011;38667;42.872;74.622;2023-03-26T00:59:16;37.43;;;12.23;;
52798;SDS011;38667;42.872;74.622;2023-03-26T01:01:43;29.50;;;11.90;;
52798;SDS011;38667;42.872;74.622;2023-03-26T01:04:19;19.55;;;8.20;;
52798;SDS011;38667;42.872;74.622;2023-03-26T01:06:52;29.83;;;8.73;;
52798;SDS011;38667;42.872;74.622;2023-03-26T01:09:20;30.80;;;11.88;;
52798;SDS011;38667;42.872;74.622;2023-03-26T01:11:52;27.30;;;10.18;;
52798;SDS011;38667;42.872;74.622;2023-03-26T01:14:20;28.73;;;10.43;;
52798;SDS011;38667;42.872;74.622;2023-03-26T01:16:50;26.43;;;9.80;;
52798;SDS011;38667;42.872;74.622;2023-03-26T01:19:18;40.67;;;13.70;;
52798;SDS011;38667;42.872;74.622;2023-03-26T01:21:50;45.33;;;17.63;;
52798;SDS011;38667;42.872;74.622;2023-03-26T01:24:18;46.70;;;16.53;;
52798;SDS011;38667;42.872;74.622;2023-03-26T01:26:51;35.73;;;15.10;;
52798;SDS011;38667;42.872;74.622;2023-03-26T01:29:34;27.52;;;12.82;;
52798;SDS011;38667;42.872;74.622;2023-03-26T01:32:09;38.75;;;11.27;;
52798;SDS011;38667;42.872;74.622;2023-03-26T01:35:03;37.92;;;12.45;;
52798;SDS011;38667;42.872;74.622;2023-03-26T01:37:40;35.93;;;14.03;;
52798;SDS011;38667;42.872;74.622;2023-03-26T01:40:13;41.45;;;15.20;;
52798;SDS011;38667;42.872;74.622;2023-03-26T01:42:47;49.53;;;17.70;;
52798;SDS011;38667;42.872;74.622;2023-03-26T01:45:19;37.92;;;15.85;;
52798;SDS011;38667;42.872;74.622;2023-03-26T01:47:50;35.72;;;16.67;;
52798;SDS011;38667;42.872;74.622;2023-03-26T01:50:17;39.10;;;15.73;;
52798;SDS011;38667;42.872;74.622;2023-03-26T01:52:44;38.78;;;15.93;;
52798;SDS011;38667;42.872;74.622;2023-03-26T01:55:12;35.07;;;14.57;;
52798;SDS011;38667;42.872;74.622;2023-03-26T01:57:40;39.80;;;11.30;;
52798;SDS011;38667;42.872;74.622;2023-03-26T02:00:19;31.50;;;11.65;;
52798;SDS011;38667;42.872;74.622;2023-03-26T02:05:39;43.65;;;11.13;;
52798;SDS011;38667;42.872;74.622;2023-03-26T02:08:09;37.72;;;11.80;;
52798;SDS011;38667;42.872;74.622;2023-03-26T02:10:46;38.90;;;11.30;;
52798;SDS011;38667;42.872;74.622;2023-03-26T02:13:15;37.35;;;10.85;;
52798;SDS011;38667;42.872;74.622;2023-03-26T02:15:53;34.70;;;10.70;;
52798;SDS011;38667;42.872;74.622;2023-03-26T02:18:21;29.02;;;9.82;;
52798;SDS011;38667;42.872;74.622;2023-03-26T02:20:47;33.60;;;9.85;;
52798;SDS011;38667;42.872;74.622;2023-03-26T02:23:13;24.85;;;9.23;;
52798;SDS011;38667;42.872;74.622;2023-03-26T02:25:40;23.67;;;9.65;;
52798;SDS011;38667;42.872;74.622;2023-03-26T02:28:07;26.30;;;9.13;;
52798;SDS011;38667;42.872;74.622;2023-03-26T02:30:34;26.98;;;7.38;;
52798;SDS011;38667;42.872;74.622;2023-03-26T02:33:00;15.77;;;7.40;;
52798;SDS011;38667;42.872;74.622;2023-03-26T02:35:26;22.67;;;8.88;;
52798;SDS011;38667;42.872;74.622;2023-03-26T02:37:53;27.38;;;9.35;;
52798;SDS011;38667;42.872;74.622;2023-03-26T02:40:19;46.72;;;10.73;;
52798;SDS011;38667;42.872;74.622;2023-03-26T02:42:45;28.52;;;9.20;;
52798;SDS011;38667;42.872;74.622;2023-03-26T02:45:13;27.17;;;9.70;;
52798;SDS011;38667;42.872;74.622;2023-03-26T02:47:40;31.30;;;11.23;;
52798;SDS011;38667;42.872;74.622;2023-03-26T02:50:07;26.08;;;9.30;;
52798;SDS011;38667;42.872;74.622;2023-03-26T02:52:33;25.52;;;9.57;;
52798;SDS011;38667;42.872;74.622;2023-03-26T02:55:00;19.25;;;8.23;;
52798;SDS011;38667;42.872;74.622;2023-03-26T02:57:26;21.67;;;8.38;;
52798;SDS011;38667;42.872;74.622;2023-03-26T02:59:52;18.52;;;8.70;;
52798;SDS011;38667;42.872;74.622;2023-03-26T03:02:20;20.05;;;8.18;;
52798;SDS011;38667;42.872;74.622;2023-03-26T03:04:47;16.50;;;7.80;;
52798;SDS011;38667;42.872;74.622;2023-03-26T03:07:13;18.98;;;7.20;;
52798;SDS011;38667;42.872;74.622;2023-03-26T03:09:39;17.08;;;7.20;;
52798;SDS011;38667;42.872;74.622;2023-03-26T03:12:06;19.00;;;8.73;;
52798;SDS011;38667;42.872;74.622;2023-03-26T03:14:32;20.95;;;8.43;;
52798;SDS011;38667;42.872;74.622;2023-03-26T03:16:58;17.15;;;8.50;;
52798;SDS011;38667;42.872;74.622;2023-03-26T03:19:26;17.17;;;8.65;;
52798;SDS011;38667;42.872;74.622;2023-03-26T03:21:52;16.75;;;7.50;;
52798;SDS011;38667;42.872;74.622;2023-03-26T03:24:19;18.73;;;7.82;;
52798;SDS011;38667;42.872;74.622;2023-03-26T03:26:45;14.20;;;7.00;;
52798;SDS011;38667;42.872;74.622;2023-03-26T03:29:11;15.18;;;7.00;;
52798;SDS011;38667;42.872;74.622;2023-03-26T03:31:38;14.98;;;7.95;;
52798;SDS011;38667;42.872;74.622;2023-03-26T03:34:04;19.40;;;7.93;;
52798;SDS011;38667;42.872;74.622;2023-03-26T03:36:32;15.43;;;7.95;;
52798;SDS011;38667;42.872;74.622;2023-03-26T03:38:58;25.88;;;9.13;;
52798;SDS011;38667;42.872;74.622;2023-03-26T03:41:24;18.38;;;8.77;;
52798;SDS011;38667;42.872;74.622;2023-03-26T03:43:51;17.88;;;7.28;;
52798;SDS011;38667;42.872;74.622;2023-03-26T03:46:17;28.23;;;7.32;;
52798;SDS011;38667;42.872;74.622;2023-03-26T03:48:43;22.33;;;8.80;;
52798;SDS011;38667;42.872;74.622;2023-03-26T03:51:10;24.05;;;8.77;;
52798;SDS011;38667;42.872;74.622;2023-03-26T03:53:38;19.42;;;8.55;;
52798;SDS011;38667;42.872;74.622;2023-03-26T03:56:05;25.50;;;9.88;;
52798;SDS011;38667;42.872;74.622;2023-03-26T03:58:32;20.92;;;9.15;;
52798;SDS011;38667;42.872;74.622;2023-03-26T04:00:58;25.33;;;10.57;;
52798;SDS011;38667;42.872;74.622;2023-03-26T04:03:25;19.73;;;9.68;;
52798;SDS011;38667;42.872;74.622;2023-03-26T04:05:52;21.92;;;8.00;;
52798;SDS011;38667;42.872;74.622;2023-03-26T04:08:19;17.55;;;8.20;;
52798;SDS011;38667;42.872;74.622;2023-03-26T04:10:47;16.80;;;9.30;;
52798;SDS011;38667;42.872;74.622;2023-03-26T04:13:13;18.60;;;9.45;;
52798;SDS011;38667;42.872;74.622;2023-03-26T04:15:40;47.00;;;21.52;;
52798;SDS011;38667;42.872;74.622;2023-03-26T04:18:07;41.40;;;19.25;;
52798;SDS011;38667;42.872;74.622;2023-03-26T04:20:34;38.80;;;17.85;;
52798;SDS011;38667;42.872;74.622;2023-03-26T04:23:01;36.35;;;17.33;;
52798;SDS011;38667;42.872;74.622;2023-03-26T04:25:27;42.88;;;22.20;;
52798;SDS011;38667;42.872;74.622;2023-03-26T04:27:55;49.53;;;21.90;;
52798;SDS011;38667;42.872;74.622;2023-03-26T04:30:22;38.42;;;19.73;;
52798;SDS011;38667;42.872;74.622;2023-03-26T04:32:48;49.33;;;21.67;;
52798;SDS011;38667;42.872;74.622;2023-03-26T04:35:15;38.38;;;21.13;;
52798;SDS011;38667;42.872;74.622;2023-03-26T04:37:41;37.13;;;17.42;;
52798;SDS011;38667;42.872;74.622;2023-03-26T04:40:11;36.47;;;16.15;;
52798;SDS011;38667;42.872;74.622;2023-03-26T04:42:39;36.22;;;17.73;;
52798;SDS011;38667;42.872;74.622;2023-03-26T04:45:08;37.45;;;18.15;;
52798;SDS011;38667;42.872;74.622;2023-03-26T04:47:35;34.88;;;18.15;;
52798;SDS011;38667;42.872;74.622;2023-03-26T04:50:01;40.40;;;18.90;;
52798;SDS011;38667;42.872;74.622;2023-03-26T04:52:27;35.78;;;18.92;;
52798;SDS011;38667;42.872;74.622;2023-03-26T04:54:54;39.10;;;20.17;;
52798;SDS011;38667;42.872;74.622;2023-03-26T04:57:21;37.55;;;18.98;;
52798;SDS011;38667;42.872;74.622;2023-03-26T04:59:50;31.85;;;19.98;;
52798;SDS011;38667;42.872;74.622;2023-03-26T05:02:19;44.20;;;20.35;;
52798;SDS011;38667;42.872;74.622;2023-03-26T05:04:45;38.50;;;19.17;;
52798;SDS011;38667;42.872;74.622;2023-03-26T05:07:11;38.95;;;18.80;;
52798;SDS011;38667;42.872;74.622;2023-03-26T05:09:41;40.42;;;19.08;;
52798;SDS011;38667;42.872;74.622;2023-03-26T05:12:08;34.08;;;20.38;;
52798;SDS011;38667;42.872;74.622;2023-03-26T05:14:34;41.15;;;20.65;;
52798;SDS011;38667;42.872;74.622;2023-03-26T05:17:00;37.80;;;19.85;;
52798;SDS011;38667;42.872;74.622;2023-03-26T05:19:29;36.30;;;21.65;;
52798;SDS011;38667;42.872;74.622;2023-03-26T05:21:55;40.72;;;21.00;;
52798;SDS011;38667;42.872;74.622;2023-03-26T05:24:21;39.70;;;22.33;;
52798;SDS011;38667;42.872;74.622;2023-03-26T05:26:48;43.58;;;23.52;;
52798;SDS011;38667;42.872;74.622;2023-03-26T05:29:14;44.00;;;22.45;;
52798;SDS011;38667;42.872;74.622;2023-03-26T05:31:42;42.28;;;21.75;;
52798;SDS011;38667;42.872;74.622;2023-03-26T05:34:08;40.88;;;22.17;;
52798;SDS011;38667;42.872;74.622;2023-03-26T05:36:36;44.30;;;22.83;;
52798;SDS011;38667;42.872;74.622;2023-03-26T05:39:02;37.72;;;21.50;;
52798;SDS011;38667;42.872;74.622;2023-03-26T05:41:29;41.45;;;21.00;;
52798;SDS011;38667;42.872;74.622;2023-03-26T05:43:55;41.83;;;20.42;;
52798;SDS011;38667;42.872;74.622;2023-03-26T05:46:21;38.30;;;21.33;;
52798;SDS011;38667;42.872;74.622;2023-03-26T05:48:48;38.53;;;20.55;;
52798;SDS011;38667;42.872;74.622;2023-03-26T05:51:14;39.00;;;22.08;;
52798;SDS011;38667;42.872;74.622;2023-03-26T05:53:42;32.25;;;18.55;;
52798;SDS011;38667;42.872;74.622;2023-03-26T05:56:09;42.30;;;20.00;;
52798;SDS011;38667;42.872;74.622;2023-03-26T05:58:35;40.03;;;20.98;;
52798;SDS011;38667;42.872;74.622;2023-03-26T06:01:02;40.45;;;20.75;;
52798;SDS011;38667;42.872;74.622;2023-03-26T06:03:30;36.95;;;21.05;;
52798;SDS011;38667;42.872;74.622;2023-03-26T06:05:57;43.10;;;18.88;;
52798;SDS011;38667;42.872;74.622;2023-03-26T06:08:23;36.08;;;18.95;;
52798;SDS011;38667;42.872;74.622;2023-03-26T06:10:56;31.25;;;18.05;;
52798;SDS011;38667;42.872;74.622;2023-03-26T06:13:23;35.45;;;16.73;;
52798;SDS011;38667;42.872;74.622;2023-03-26T06:15:49;30.38;;;15.85;;
52798;SDS011;38667;42.872;74.622;2023-03-26T06:18:15;36.80;;;18.60;;
52798;SDS011;38667;42.872;74.622;2023-03-26T06:20:42;34.80;;;17.08;;
52798;SDS011;38667;42.872;74.622;2023-03-26T06:23:08;31.30;;;15.73;;
52798;SDS011;38667;42.872;74.622;2023-03-26T06:25:35;31.35;;;13.70;;
52798;SDS011;38667;42.872;74.622;2023-03-26T06:28:04;22.27;;;12.40;;
52798;SDS011;38667;42.872;74.622;2023-03-26T06:30:30;23.52;;;12.43;;
52798;SDS011;38667;42.872;74.622;2023-03-26T06:32:56;24.08;;;12.07;;
52798;SDS011;38667;42.872;74.622;2023-03-26T06:35:23;29.08;;;14.23;;
52798;SDS011;38667;42.872;74.622;2023-03-26T06:37:49;26.80;;;12.05;;
52798;SDS011;38667;42.872;74.622;2023-03-26T06:40:15;23.80;;;14.85;;
52798;SDS011;38667;42.872;74.622;2023-03-26T06:42:42;28.77;;;15.15;;
52798;SDS011;38667;42.872;74.622;2023-03-26T06:45:10;22.33;;;15.52;;
52798;SDS011;38667;42.872;74.622;2023-03-26T06:47:36;31.48;;;18.80;;
52798;SDS011;38667;42.872;74.622;2023-03-26T06:50:03;35.03;;;18.33;;
52798;SDS011;38667;42.872;74.622;2023-03-26T06:52:30;35.83;;;18.85;;
52798;SDS011;38667;42.872;74.622;2023-03-26T06:54:56;25.70;;;14.43;;
52798;SDS011;38667;42.872;74.622;2023-03-26T06:57:22;34.72;;;18.58;;
52798;SDS011;38667;42.872;74.622;2023-03-26T06:59:49;35.72;;;14.43;;
52798;SDS011;38667;42.872;74.622;2023-03-26T07:02:16;33.80;;;21.17;;
52798;SDS011;38667;42.872;74.622;2023-03-26T07:04:43;34.03;;;22.00;;
52798;SDS011;38667;42.872;74.622;2023-03-26T07:07:09;34.67;;;23.17;;
52798;SDS011;38667;42.872;74.622;2023-03-26T07:09:35;43.88;;;21.63;;
52798;SDS011;38667;42.872;74.622;2023-03-26T07:12:02;37.42;;;20.65;;
52798;SDS011;38667;42.872;74.622;2023-03-26T07:14:28;38.55;;;22.27;;
52798;SDS011;38667;42.872;74.622;2023-03-26T07:16:56;41.85;;;21.65;;
52798;SDS011;38667;42.872;74.622;2023-03-26T07:19:24;36.50;;;21.00;;
52798;SDS011;38667;42.872;74.622;2023-03-26T07:21:50;39.10;;;20.70;;
52798;SDS011;38667;42.872;74.622;2023-03-26T07:24:17;42.30;;;23.13;;
52798;SDS011;38667;42.872;74.622;2023-03-26T07:26:46;33.80;;;19.40;;
52798;SDS011;38667;42.872;74.622;2023-03-26T07:29:22;33.60;;;19.65;;
52798;SDS011;38667;42.872;74.622;2023-03-26T07:31:55;31.67;;;16.83;;
52798;SDS011;38667;42.872;74.622;2023-03-26T07:34:33;37.22;;;19.92;;
52798;SDS011;38667;42.872;74.622;2023-03-26T07:37:08;41.35;;;21.88;;
52798;SDS011;38667;42.872;74.622;2023-03-26T07:39:43;31.63;;;18.48;;
52798;SDS011;38667;42.872;74.622;2023-03-26T07:42:20;26.65;;;17.00;;
52798;SDS011;38667;42.872;74.622;2023-03-26T07:44:54;36.92;;;19.88;;
52798;SDS011;38667;42.872;74.622;2023-03-26T07:47:27;30.15;;;18.50;;
52798;SDS011;38667;42.872;74.622;2023-03-26T07:49:58;38.42;;;18.67;;
52798;SDS011;38667;42.872;74.622;2023-03-26T07:52:25;30.88;;;18.88;;
52798;SDS011;38667;42.872;74.622;2023-03-26T07:54:52;45.50;;;21.27;;
52798;SDS011;38667;42.872;74.622;2023-03-26T07:57:22;31.98;;;18.55;;
52798;SDS011;38667;42.872;74.622;2023-03-26T07:59:56;34.45;;;18.63;;
52798;SDS011;38667;42.872;74.622;2023-03-26T08:05:19;31.38;;;18.70;;
52798;SDS011;38667;42.872;74.622;2023-03-26T08:07:52;30.33;;;16.75;;
52798;SDS011;38667;42.872;74.622;2023-03-26T08:10:28;35.70;;;16.77;;
52798;SDS011;38667;42.872;74.622;2023-03-26T08:12:59;36.40;;;17.02;;
52798;SDS011;38667;42.872;74.622;2023-03-26T08:15:34;30.95;;;18.35;;
52798;SDS011;38667;42.872;74.622;2023-03-26T08:18:09;32.08;;;19.38;;
52798;SDS011;38667;42.872;74.622;2023-03-26T08:20:48;30.17;;;20.55;;
52798;SDS011;38667;42.872;74.622;2023-03-26T08:23:16;33.42;;;18.42;;
52798;SDS011;38667;42.872;74.622;2023-03-26T08:25:51;30.73;;;18.75;;
52798;SDS011;38667;42.872;74.622;2023-03-26T08:28:26;42.85;;;19.35;;
52798;SDS011;38667;42.872;74.622;2023-03-26T08:31:06;35.92;;;18.90;;
52798;SDS011;38667;42.872;74.622;2023-03-26T08:33:35;31.73;;;19.20;;
52798;SDS011;38667;42.872;74.622;2023-03-26T08:36:03;30.48;;;18.02;;
52798;SDS011;38667;42.872;74.622;2023-03-26T08:38:30;32.05;;;19.98;;
52798;SDS011;38667;42.872;74.622;2023-03-26T08:50:40;30.27;;;15.80;;
52798;SDS011;38667;42.872;74.622;2023-03-26T08:56:31;28.17;;;14.23;;
52798;SDS011;38667;42.872;74.622;2023-03-26T08:59:18;31.45;;;16.30;;
52798;SDS011;38667;42.872;74.622;2023-03-26T09:02:09;20.23;;;12.55;;
52798;SDS011;38667;42.872;74.622;2023-03-26T09:08:24;31.77;;;16.08;;
52798;SDS011;38667;42.872;74.622;2023-03-26T09:11:28;23.83;;;14.95;;
52798;SDS011;38667;42.872;74.622;2023-03-26T09:14:24;40.60;;;19.75;;
52798;SDS011;38667;42.872;74.622;2023-03-26T09:17:33;23.73;;;14.77;;
52798;SDS011;38667;42.872;74.622;2023-03-26T09:20:41;28.10;;;17.55;;
52798;SDS011;38667;42.872;74.622;2023-03-26T09:26:23;28.25;;;17.00;;
52798;SDS011;38667;42.872;74.622;2023-03-26T09:29:06;33.08;;;19.67;;
52798;SDS011;38667;42.872;74.622;2023-03-26T09:35:10;41.33;;;19.63;;
52798;SDS011;38667;42.872;74.622;2023-03-26T09:37:44;36.13;;;17.90;;
52798;SDS011;38667;42.872;74.622;2023-03-26T09:40:23;33.65;;;16.10;;
52798;SDS011;38667;42.872;74.622;2023-03-26T09:42:59;32.05;;;19.25;;
52798;SDS011;38667;42.872;74.622;2023-03-26T09:45:51;30.08;;;19.13;;
52798;SDS011;38667;42.872;74.622;2023-03-26T09:48:33;27.92;;;19.63;;
52798;SDS011;38667;42.872;74.622;2023-03-26T09:51:27;33.80;;;19.55;;
52798;SDS011;38667;42.872;74.622;2023-03-26T09:54:09;31.58;;;19.20;;
52798;SDS011;38667;42.872;74.622;2023-03-26T09:56:51;26.85;;;18.10;;
52798;SDS011;38667;42.872;74.622;2023-03-26T09:59:30;33.13;;;18.10;;
52798;SDS011;38667;42.872;74.622;2023-03-26T10:02:36;36.25;;;18.73;;
52798;SDS011;38667;42.872;74.622;2023-03-26T10:05:18;32.70;;;19.30;;
52798;SDS011;38667;42.872;74.622;2023-03-26T10:07:52;35.20;;;19.20;;
52798;SDS011;38667;42.872;74.622;2023-03-26T10:10:30;31.67;;;18.05;;
52798;SDS011;38667;42.872;74.622;2023-03-26T10:13:04;38.03;;;18.08;;
52798;SDS011;38667;42.872;74.622;2023-03-26T10:15:46;32.35;;;19.95;;
52798;SDS011;38667;42.872;74.622;2023-03-26T10:18:30;32.60;;;17.60;;
52798;SDS011;38667;42.872;74.622;2023-03-26T10:21:04;46.60;;;20.23;;
52798;SDS011;38667;42.872;74.622;2023-03-26T10:23:39;32.33;;;18.85;;
52798;SDS011;38667;42.872;74.622;2023-03-26T10:26:27;37.08;;;19.23;;
52798;SDS011;38667;42.872;74.622;2023-03-26T10:29:16;29.08;;;16.92;;
52798;SDS011;38667;42.872;74.622;2023-03-26T10:31:54;32.10;;;19.17;;
52798;SDS011;38667;42.872;74.622;2023-03-26T10:34:45;30.05;;;18.63;;
52798;SDS011;38667;42.872;74.622;2023-03-26T10:37:20;26.10;;;17.55;;
52798;SDS011;38667;42.872;74.622;2023-03-26T10:39:59;29.33;;;18.33;;
52798;SDS011;38667;42.872;74.622;2023-03-26T10:42:46;34.90;;;18.60;;
52798;SDS011;38667;42.872;74.622;2023-03-26T10:45:40;30.40;;;17.52;;
52798;SDS011;38667;42.872;74.622;2023-03-26T10:48:35;29.83;;;17.70;;
52798;SDS011;38667;42.872;74.622;2023-03-26T10:51:28;27.70;;;14.95;;
52798;SDS011;38667;42.872;74.622;2023-03-26T10:54:05;36.28;;;17.08;;
52798;SDS011;38667;42.872;74.622;2023-03-26T10:56:38;27.00;;;16.45;;
52798;SDS011;38667;42.872;74.622;2023-03-26T10:59:09;25.35;;;15.95;;
52798;SDS011;38667;42.872;74.622;2023-03-26T11:01:39;28.55;;;15.82;;
52798;SDS011;38667;42.872;74.622;2023-03-26T11:04:16;24.92;;;14.63;;
52798;SDS011;38667;42.872;74.622;2023-03-26T11:06:51;28.55;;;14.90;;
52798;SDS011;38667;42.872;74.622;2023-03-26T11:09:27;26.48;;;15.70;;
52798;SDS011;38667;42.872;74.622;2023-03-26T11:12:02;33.90;;;16.88;;
52798;SDS011;38667;42.872;74.622;2023-03-26T11:14:35;25.70;;;15.63;;
52798;SDS011;38667;42.872;74.622;2023-03-26T11:17:12;32.35;;;16.85;;
52798;SDS011;38667;42.872;74.622;2023-03-26T11:19:46;20.73;;;13.25;;
52798;SDS011;38667;42.872;74.622;2023-03-26T11:22:20;26.33;;;14.20;;
52798;SDS011;38667;42.872;74.622;2023-03-26T11:25:04;26.15;;;14.43;;
52798;SDS011;38667;42.872;74.622;2023-03-26T11:27:49;33.90;;;15.52;;
52798;SDS011;38667;42.872;74.622;2023-03-26T11:30:28;19.23;;;12.38;;
52798;SDS011;38667;42.872;74.622;2023-03-26T11:33:02;24.55;;;13.82;;
52798;SDS011;38667;42.872;74.622;2023-03-26T11:35:31;25.23;;;13.80;;
52798;SDS011;38667;42.872;74.622;2023-03-26T11:38:02;26.83;;;13.85;;
52798;SDS011;38667;42.872;74.622;2023-03-26T11:40:31;25.95;;;14.32;;
52798;SDS011;38667;42.872;74.622;2023-03-26T11:43:02;27.05;;;14.77;;
52798;SDS011;38667;42.872;74.622;2023-03-26T11:45:30;33.10;;;15.57;;
52798;SDS011;38667;42.872;74.622;2023-03-26T11:48:00;27.02;;;14.82;;
52798;SDS011;38667;42.872;74.622;2023-03-26T11:50:32;26.80;;;14.38;;
52798;SDS011;38667;42.872;74.622;2023-03-26T11:53:09;28.50;;;14.52;;
52798;SDS011;38667;42.872;74.622;2023-03-26T11:55:36;24.88;;;14.10;;
52798;SDS011;38667;42.872;74.622;2023-03-26T11:58:05;27.80;;;14.15;;
52798;SDS011;38667;42.872;74.622;2023-03-26T12:00:48;28.20;;;14.68;;
52798;SDS011;38667;42.872;74.622;2023-03-26T12:03:18;28.45;;;15.63;;
52798;SDS011;38667;42.872;74.622;2023-03-26T12:05:46;25.65;;;13.95;;
52798;SDS011;38667;42.872;74.622;2023-03-26T12:08:20;26.15;;;14.68;;
52798;SDS011;38667;42.872;74.622;2023-03-26T12:10:57;30.65;;;13.07;;
52798;SDS011;38667;42.872;74.622;2023-03-26T12:13:32;25.85;;;14.85;;
52798;SDS011;38667;42.872;74.622;2023-03-26T12:16:04;26.27;;;14.75;;
52798;SDS011;38667;42.872;74.622;2023-03-26T12:18:34;31.45;;;14.77;;
52798;SDS011;38667;42.872;74.622;2023-03-26T12:21:03;23.75;;;14.85;;
52798;SDS011;38667;42.872;74.622;2023-03-26T12:23:34;22.48;;;15.35;;
52798;SDS011;38667;42.872;74.622;2023-03-26T12:26:03;31.65;;;16.25;;
52798;SDS011;38667;42.872;74.622;2023-03-26T12:28:36;24.17;;;15.98;;
52798;SDS011;38667;42.872;74.622;2023-03-26T12:31:09;37.33;;;15.90;;
52798;SDS011;38667;42.872;74.622;2023-03-26T12:33:37;24.98;;;15.10;;
52798;SDS011;38667;42.872;74.622;2023-03-26T12:36:15;29.67;;;14.93;;
52798;SDS011;38667;42.872;74.622;2023-03-26T12:38:45;26.92;;;15.77;;
52798;SDS011;38667;42.872;74.622;2023-03-26T12:41:13;34.08;;;15.65;;
52798;SDS011;38667;42.872;74.622;2023-03-26T12:43:41;30.08;;;16.23;;
52798;SDS011;38667;42.872;74.622;2023-03-26T12:48:53;36.28;;;17.60;;
52798;SDS011;38667;42.872;74.622;2023-03-26T12:51:29;32.45;;;16.30;;
52798;SDS011;38667;42.872;74.622;2023-03-26T12:54:08;31.48;;;17.13;;
52798;SDS011;38667;42.872;74.622;2023-03-26T12:56:51;39.47;;;18.08;;
52798;SDS011;38667;42.872;74.622;2023-03-26T12:59:29;33.75;;;17.27;;
52798;SDS011;38667;42.872;74.622;2023-03-26T13:02:07;42.70;;;18.92;;
52798;SDS011;38667;42.872;74.622;2023-03-26T13:04:57;38.75;;;17.63;;
52798;SDS011;38667;42.872;74.622;2023-03-26T13:07:44;37.90;;;19.08;;
52798;SDS011;38667;42.872;74.622;2023-03-26T13:16:03;35.58;;;19.35;;
52798;SDS011;38667;42.872;74.622;2023-03-26T13:18:43;36.85;;;18.88;;
52798;SDS011;38667;42.872;74.622;2023-03-26T13:21:15;39.78;;;19.13;;
52798;SDS011;38667;42.872;74.622;2023-03-26T13:23:50;37.47;;;18.98;;
52798;SDS011;38667;42.872;74.622;2023-03-26T13:26:30;45.03;;;20.35;;
52798;SDS011;38667;42.872;74.622;2023-03-26T13:29:07;43.00;;;21.70;;
52798;SDS011;38667;42.872;74.622;2023-03-26T13:31:40;45.72;;;23.23;;
52798;SDS011;38667;42.872;74.622;2023-03-26T13:34:14;50.45;;;25.30;;
52798;SDS011;38667;42.872;74.622;2023-03-26T13:36:54;48.70;;;26.58;;
52798;SDS011;38667;42.872;74.622;2023-03-26T13:39:28;61.97;;;29.05;;
52798;SDS011;38667;42.872;74.622;2023-03-26T13:42:06;67.13;;;29.25;;
52798;SDS011;38667;42.872;74.622;2023-03-26T13:44:46;49.80;;;26.48;;
52798;SDS011;38667;42.872;74.622;2023-03-26T13:47:19;48.40;;;26.65;;
52798;SDS011;38667;42.872;74.622;2023-03-26T13:49:49;46.95;;;22.83;;
52798;SDS011;38667;42.872;74.622;2023-03-26T13:52:20;42.30;;;22.15;;
52798;SDS011;38667;42.872;74.622;2023-03-26T13:54:50;46.45;;;21.40;;
52798;SDS011;38667;42.872;74.622;2023-03-26T13:57:23;37.90;;;21.45;;
52798;SDS011;38667;42.872;74.622;2023-03-26T13:59:55;47.92;;;22.30;;
52798;SDS011;38667;42.872;74.622;2023-03-26T14:02:28;39.90;;;21.23;;
52798;SDS011;38667;42.872;74.622;2023-03-26T14:05:00;49.90;;;26.40;;
52798;SDS011;38667;42.872;74.622;2023-03-26T14:07:32;60.58;;;29.85;;
52798;SDS011;38667;42.872;74.622;2023-03-26T14:10:07;83.53;;;44.42;;
52798;SDS011;38667;42.872;74.622;2023-03-26T14:12:42;93.03;;;47.95;;
52798;SDS011;38667;42.872;74.622;2023-03-26T14:15:14;78.63;;;44.63;;
52798;SDS011;38667;42.872;74.622;2023-03-26T14:17:47;87.20;;;47.42;;
52798;SDS011;38667;42.872;74.622;2023-03-26T14:26:25;87.75;;;43.50;;
52798;SDS011;38667;42.872;74.622;2023-03-26T14:29:27;90.57;;;40.67;;
52798;SDS011;38667;42.872;74.622;2023-03-26T14:32:12;105.20;;;48.75;;
52798;SDS011;38667;42.872;74.622;2023-03-26T14:34:51;90.43;;;42.33;;
52798;SDS011;38667;42.872;74.622;2023-03-26T14:37:49;81.10;;;39.70;;
52798;SDS011;38667;42.872;74.622;2023-03-26T14:40:50;87.25;;;41.45;;
52798;SDS011;38667;42.872;74.622;2023-03-26T14:43:26;85.40;;;40.05;;
52798;SDS011;38667;42.872;74.622;2023-03-26T14:46:17;70.93;;;39.97;;
52798;SDS011;38667;42.872;74.622;2023-03-26T14:48:58;81.05;;;38.90;;
52798;SDS011;38667;42.872;74.622;2023-03-26T14:51:52;69.47;;;34.17;;
52798;SDS011;38667;42.872;74.622;2023-03-26T14:54:25;71.65;;;34.15;;
52798;SDS011;38667;42.872;74.622;2023-03-26T15:00:08;59.35;;;30.05;;
52798;SDS011;38667;42.872;74.622;2023-03-26T15:06:17;66.05;;;32.13;;
52798;SDS011;38667;42.872;74.622;2023-03-26T15:12:17;68.00;;;32.33;;
52798;SDS011;38667;42.872;74.622;2023-03-26T15:17:58;54.00;;;27.52;;
52798;SDS011;38667;42.872;74.622;2023-03-26T15:20:47;52.20;;;26.98;;
52798;SDS011;38667;42.872;74.622;2023-03-26T15:26:56;55.33;;;26.08;;
52798;SDS011;38667;42.872;74.622;2023-03-26T15:29:46;54.20;;;25.67;;
52798;SDS011;38667;42.872;74.622;2023-03-26T15:35:40;60.55;;;28.02;;
52798;SDS011;38667;42.872;74.622;2023-03-26T15:41:30;52.55;;;26.77;;
52798;SDS011;38667;42.872;74.622;2023-03-26T15:44:09;56.20;;;27.35;;
52798;SDS011;38667;42.872;74.622;2023-03-26T15:47:15;47.45;;;25.15;;